sensor_id;sensor_type;location;lat;lon;timestamp;pressure;altitude;pressure_sealevel;temperature;humidity
43820;BME280;67762;52.476;6.046;2023-05-01T00:01:53;101838.91;;;9.30;70.09
43820;BME280;67762;52.476;6.046;2023-05-01T00:04:18;101837.31;;;9.27;70.34
43820;BME280;67762;52.476;6.046;2023-05-01T00:06:46;101833.69;;;9.28;70.31
43820;BME280;67762;52.476;6.046;2023-05-01T00:09:11;101837.47;;;9.26;70.59
43820;BME280;67762;52.476;6.046;2023-05-01T00:11:37;101829.72;;;9.23;70.69
43820;BME280;67762;52.476;6.046;2023-05-01T00:14:02;101831.09;;;9.17;70.16
43820;BME280;67762;52.476;6.046;2023-05-01T00:16:28;101834.88;;;9.15;70.76
43820;BME280;67762;52.476;6.046;2023-05-01T00:18:54;101830.66;;;9.12;70.75
43820;BME280;67762;52.476;6.046;2023-05-01T00:21:19;101822.66;;;9.12;70.46
43820;BME280;67762;52.476;6.046;2023-05-01T00:23:45;101816.63;;;9.10;70.79
43820;BME280;67762;52.476;6.046;2023-05-01T00:26:11;101814.78;;;9.11;70.64
43820;BME280;67762;52.476;6.046;2023-05-01T00:28:38;101815.09;;;9.08;70.90
43820;BME280;67762;52.476;6.046;2023-05-01T00:31:03;101816.31;;;9.04;70.61
43820;BME280;67762;52.476;6.046;2023-05-01T00:33:29;101812.09;;;9.01;70.69
43820;BME280;67762;52.476;6.046;2023-05-01T00:35:55;101805.31;;;8.97;71.13
43820;BME280;67762;52.476;6.046;2023-05-01T00:38:20;101812.75;;;8.94;70.76
43820;BME280;67762;52.476;6.046;2023-05-01T00:40:48;101810.44;;;8.89;71.44
43820;BME280;67762;52.476;6.046;2023-05-01T00:43:13;101806.38;;;8.85;71.39
43820;BME280;67762;52.476;6.046;2023-05-01T00:45:42;101805.06;;;8.79;71.18
43820;BME280;67762;52.476;6.046;2023-05-01T00:48:09;101797.59;;;8.73;71.67
43820;BME280;67762;52.476;6.046;2023-05-01T00:50:35;101794.34;;;8.70;71.71
43820;BME280;67762;52.476;6.046;2023-05-01T00:53:01;101778.63;;;8.67;71.40
43820;BME280;67762;52.476;6.046;2023-05-01T00:55:27;101789.94;;;8.59;72.12
43820;BME280;67762;52.476;6.046;2023-05-01T00:57:54;101777.03;;;8.55;72.09
43820;BME280;67762;52.476;6.046;2023-05-01T01:00:19;101784.41;;;8.51;72.46
43820;BME280;67762;52.476;6.046;2023-05-01T01:02:47;101772.31;;;8.47;72.16
43820;BME280;67762;52.476;6.046;2023-05-01T01:05:13;101767.25;;;8.44;72.52
43820;BME280;67762;52.476;6.046;2023-05-01T01:10:32;101762.97;;;8.32;73.01
43820;BME280;67762;52.476;6.046;2023-05-01T01:13:06;101761.63;;;8.27;73.34
43820;BME280;67762;52.476;6.046;2023-05-01T01:15:49;101751.34;;;8.22;72.56
43820;BME280;67762;52.476;6.046;2023-05-01T01:21:27;101748.47;;;8.14;73.36
43820;BME280;67762;52.476;6.046;2023-05-01T01:26:58;101747.78;;;8.12;73.56
43820;BME280;67762;52.476;6.046;2023-05-01T01:32:45;101733.56;;;8.02;74.18
43820;BME280;67762;52.476;6.046;2023-05-01T01:35:18;101734.75;;;7.98;73.93
43820;BME280;67762;52.476;6.046;2023-05-01T01:37:53;101731.50;;;7.94;73.38
43820;BME280;67762;52.476;6.046;2023-05-01T01:40:24;101723.66;;;7.93;73.63
43820;BME280;67762;52.476;6.046;2023-05-01T01:43:01;101730.94;;;7.91;73.96
43820;BME280;67762;52.476;6.046;2023-05-01T01:45:38;101721.16;;;7.91;73.92
43820;BME280;67762;52.476;6.046;2023-05-01T01:48:12;101721.25;;;7.90;73.67
43820;BME280;67762;52.476;6.046;2023-05-01T01:50:41;101708.94;;;7.89;74.16
43820;BME280;67762;52.476;6.046;2023-05-01T01:53:10;101709.94;;;7.88;73.83
43820;BME280;67762;52.476;6.046;2023-05-01T01:55:39;101705.72;;;7.85;74.31
43820;BME280;67762;52.476;6.046;2023-05-01T01:58:05;101695.44;;;7.81;74.28
43820;BME280;67762;52.476;6.046;2023-05-01T02:00:32;101696.66;;;7.77;73.82
43820;BME280;67762;52.476;6.046;2023-05-01T02:02:59;101690.66;;;7.75;74.21
43820;BME280;67762;52.476;6.046;2023-05-01T02:05:26;101697.03;;;7.72;74.78
43820;BME280;67762;52.476;6.046;2023-05-01T02:07:53;101691.13;;;7.69;74.56
43820;BME280;67762;52.476;6.046;2023-05-01T02:10:21;101681.63;;;7.66;74.91
43820;BME280;67762;52.476;6.046;2023-05-01T02:12:50;101685.22;;;7.65;75.22
43820;BME280;67762;52.476;6.046;2023-05-01T02:15:17;101679.91;;;7.65;74.71
43820;BME280;67762;52.476;6.046;2023-05-01T02:17:47;101670.38;;;7.62;74.50
43820;BME280;67762;52.476;6.046;2023-05-01T02:20:14;101677.38;;;7.63;75.02
43820;BME280;67762;52.476;6.046;2023-05-01T02:22:42;101667.72;;;7.62;74.40
43820;BME280;67762;52.476;6.046;2023-05-01T02:25:11;101668.81;;;7.60;74.83
43820;BME280;67762;52.476;6.046;2023-05-01T02:27:39;101664.47;;;7.59;74.32
43820;BME280;67762;52.476;6.046;2023-05-01T02:30:08;101660.97;;;7.58;75.45
43820;BME280;67762;52.476;6.046;2023-05-01T02:32:34;101655.09;;;7.55;74.88
43820;BME280;67762;52.476;6.046;2023-05-01T02:35:00;101654.47;;;7.51;75.33
43820;BME280;67762;52.476;6.046;2023-05-01T02:37:26;101651.09;;;7.49;75.71
43820;BME280;67762;52.476;6.046;2023-05-01T02:39:53;101652.31;;;7.45;75.56
43820;BME280;67762;52.476;6.046;2023-05-01T02:42:21;101646.41;;;7.42;75.30
43820;BME280;67762;52.476;6.046;2023-05-01T02:44:51;101644.84;;;7.39;75.18
43820;BME280;67762;52.476;6.046;2023-05-01T02:47:21;101638.56;;;7.40;75.68
43820;BME280;67762;52.476;6.046;2023-05-01T02:49:48;101642.78;;;7.43;75.63
43820;BME280;67762;52.476;6.046;2023-05-01T02:52:16;101635.44;;;7.46;75.73
43820;BME280;67762;52.476;6.046;2023-05-01T02:54:44;101632.88;;;7.45;75.85
43820;BME280;67762;52.476;6.046;2023-05-01T02:57:11;101633.00;;;7.43;75.40
43820;BME280;67762;52.476;6.046;2023-05-01T02:59:37;101621.94;;;7.38;75.75
43820;BME280;67762;52.476;6.046;2023-05-01T03:02:02;101613.47;;;7.33;75.64
43820;BME280;67762;52.476;6.046;2023-05-01T03:04:28;101616.13;;;7.22;75.56
43820;BME280;67762;52.476;6.046;2023-05-01T03:06:54;101619.31;;;7.16;75.43
43820;BME280;67762;52.476;6.046;2023-05-01T03:09:21;101613.25;;;7.14;75.57
43820;BME280;67762;52.476;6.046;2023-05-01T03:11:47;101616.75;;;7.15;75.68
43820;BME280;67762;52.476;6.046;2023-05-01T03:14:13;101608.94;;;7.13;76.19
43820;BME280;67762;52.476;6.046;2023-05-01T03:16:38;101608.94;;;7.13;76.25
43820;BME280;67762;52.476;6.046;2023-05-01T03:19:05;101603.97;;;7.08;75.47
43820;BME280;67762;52.476;6.046;2023-05-01T03:21:31;101599.06;;;7.04;76.10
43820;BME280;67762;52.476;6.046;2023-05-01T03:23:58;101593.03;;;7.02;75.99
43820;BME280;67762;52.476;6.046;2023-05-01T03:26:24;101594.00;;;7.01;76.59
43820;BME280;67762;52.476;6.046;2023-05-01T03:28:50;101593.75;;;7.04;76.46
43820;BME280;67762;52.476;6.046;2023-05-01T03:31:16;101587.59;;;7.03;76.20
43820;BME280;67762;52.476;6.046;2023-05-01T03:33:42;101584.94;;;7.03;76.58
43820;BME280;67762;52.476;6.046;2023-05-01T03:36:08;101592.91;;;7.03;76.27
43820;BME280;67762;52.476;6.046;2023-05-01T03:38:36;101586.88;;;7.01;76.68
43820;BME280;67762;52.476;6.046;2023-05-01T03:41:07;101579.88;;;7.00;76.46
43820;BME280;67762;52.476;6.046;2023-05-01T03:43:52;101584.47;;;6.98;76.38
43820;BME280;67762;52.476;6.046;2023-05-01T03:46:40;101579.16;;;6.98;76.77
43820;BME280;67762;52.476;6.046;2023-05-01T03:49:11;101578.22;;;6.99;76.33
43820;BME280;67762;52.476;6.046;2023-05-01T03:51:44;101572.06;;;6.99;76.90
43820;BME280;67762;52.476;6.046;2023-05-01T03:54:09;101574.72;;;6.99;76.29
43820;BME280;67762;52.476;6.046;2023-05-01T03:56:51;101568.41;;;7.00;76.40
43820;BME280;67762;52.476;6.046;2023-05-01T03:59:17;101564.81;;;7.01;76.43
43820;BME280;67762;52.476;6.046;2023-05-01T04:01:43;101564.81;;;7.01;76.76
43820;BME280;67762;52.476;6.046;2023-05-01T04:04:09;101570.13;;;7.01;76.22
43820;BME280;67762;52.476;6.046;2023-05-01T04:06:36;101560.34;;;7.01;77.22
43820;BME280;67762;52.476;6.046;2023-05-01T04:09:02;101552.38;;;7.01;76.68
43820;BME280;67762;52.476;6.046;2023-05-01T04:11:27;101553.25;;;7.02;76.66
43820;BME280;67762;52.476;6.046;2023-05-01T04:13:53;101555.88;;;7.02;77.48
43820;BME280;67762;52.476;6.046;2023-05-01T04:16:19;101557.56;;;7.03;77.66
43820;BME280;67762;52.476;6.046;2023-05-01T04:18:44;101557.44;;;7.04;77.46
43820;BME280;67762;52.476;6.046;2023-05-01T04:21:10;101546.69;;;7.06;76.76
43820;BME280;67762;52.476;6.046;2023-05-01T04:23:38;101551.03;;;7.07;77.84
43820;BME280;67762;52.476;6.046;2023-05-01T04:26:03;101549.00;;;7.11;77.09
43820;BME280;67762;52.476;6.046;2023-05-01T04:28:29;101553.06;;;7.15;77.59
43820;BME280;67762;52.476;6.046;2023-05-01T04:30:55;101547.53;;;7.18;77.73
43820;BME280;67762;52.476;6.046;2023-05-01T04:33:21;101551.72;;;7.20;77.41
43820;BME280;67762;52.476;6.046;2023-05-01T04:35:48;101543.53;;;7.23;77.51
43820;BME280;67762;52.476;6.046;2023-05-01T04:38:14;101545.78;;;7.28;77.04
43820;BME280;67762;52.476;6.046;2023-05-01T04:40:40;101541.78;;;7.33;76.91
43820;BME280;67762;52.476;6.046;2023-05-01T04:43:06;101545.63;;;7.40;76.76
43820;BME280;67762;52.476;6.046;2023-05-01T04:45:31;101542.50;;;7.46;77.37
43820;BME280;67762;52.476;6.046;2023-05-01T04:47:57;101543.41;;;7.56;76.50
43820;BME280;67762;52.476;6.046;2023-05-01T04:50:23;101540.03;;;7.75;76.70
43820;BME280;67762;52.476;6.046;2023-05-01T04:52:49;101552.06;;;7.90;76.17
43820;BME280;67762;52.476;6.046;2023-05-01T04:55:14;101547.63;;;8.00;76.37
43820;BME280;67762;52.476;6.046;2023-05-01T04:57:59;101547.00;;;8.08;76.37
43820;BME280;67762;52.476;6.046;2023-05-01T05:00:26;101553.91;;;8.20;75.66
43820;BME280;67762;52.476;6.046;2023-05-01T05:02:55;101549.41;;;8.32;76.28
43820;BME280;67762;52.476;6.046;2023-05-01T05:05:21;101542.47;;;8.50;75.76
43820;BME280;67762;52.476;6.046;2023-05-01T05:07:48;101548.34;;;8.74;74.93
43820;BME280;67762;52.476;6.046;2023-05-01T05:10:32;101542.78;;;8.96;74.73
43820;BME280;67762;52.476;6.046;2023-05-01T05:13:12;101538.19;;;9.17;74.38
43820;BME280;67762;52.476;6.046;2023-05-01T05:15:38;101542.28;;;9.21;74.35
43820;BME280;67762;52.476;6.046;2023-05-01T05:18:05;101549.00;;;9.25;73.89
43820;BME280;67762;52.476;6.046;2023-05-01T05:20:31;101547.91;;;9.37;74.17
43820;BME280;67762;52.476;6.046;2023-05-01T05:22:57;101549.88;;;9.45;73.91
43820;BME280;67762;52.476;6.046;2023-05-01T05:25:23;101543.84;;;9.53;73.79
43820;BME280;67762;52.476;6.046;2023-05-01T05:27:49;101544.28;;;9.58;73.53
43820;BME280;67762;52.476;6.046;2023-05-01T05:30:15;101546.63;;;9.61;73.40
43820;BME280;67762;52.476;6.046;2023-05-01T05:32:41;101545.81;;;9.60;73.40
43820;BME280;67762;52.476;6.046;2023-05-01T05:35:07;101541.59;;;9.67;73.27
43820;BME280;67762;52.476;6.046;2023-05-01T05:37:32;101544.38;;;9.75;73.29
43820;BME280;67762;52.476;6.046;2023-05-01T05:39:59;101541.00;;;9.83;73.32
43820;BME280;67762;52.476;6.046;2023-05-01T05:42:26;101535.56;;;9.84;73.08
43820;BME280;67762;52.476;6.046;2023-05-01T05:44:51;101543.41;;;9.86;73.31
43820;BME280;67762;52.476;6.046;2023-05-01T05:47:17;101536.66;;;9.91;73.00
43820;BME280;67762;52.476;6.046;2023-05-01T05:49:42;101536.53;;;9.93;72.82
43820;BME280;67762;52.476;6.046;2023-05-01T05:52:09;101528.25;;;9.96;72.78
43820;BME280;67762;52.476;6.046;2023-05-01T05:54:35;101532.44;;;9.98;72.70
43820;BME280;67762;52.476;6.046;2023-05-01T05:57:01;101533.00;;;10.02;72.43
43820;BME280;67762;52.476;6.046;2023-05-01T05:59:28;101537.50;;;10.02;72.06
43820;BME280;67762;52.476;6.046;2023-05-01T06:01:54;101535.25;;;10.07;72.15
43820;BME280;67762;52.476;6.046;2023-05-01T06:04:19;101541.81;;;10.12;71.59
43820;BME280;67762;52.476;6.046;2023-05-01T06:06:45;101528.38;;;10.14;71.33
43820;BME280;67762;52.476;6.046;2023-05-01T06:09:12;101522.63;;;10.18;70.94
43820;BME280;67762;52.476;6.046;2023-05-01T06:11:37;101526.94;;;10.19;70.48
43820;BME280;67762;52.476;6.046;2023-05-01T06:14:04;101517.56;;;10.15;69.90
43820;BME280;67762;52.476;6.046;2023-05-01T06:16:29;101521.47;;;10.11;69.56
43820;BME280;67762;52.476;6.046;2023-05-01T06:18:55;101522.47;;;10.10;69.02
43820;BME280;67762;52.476;6.046;2023-05-01T06:21:21;101520.63;;;10.11;68.71
43820;BME280;67762;52.476;6.046;2023-05-01T06:23:46;101529.78;;;10.18;68.89
43820;BME280;67762;52.476;6.046;2023-05-01T06:26:21;101520.63;;;10.20;68.46
43820;BME280;67762;52.476;6.046;2023-05-01T06:28:48;101515.69;;;10.25;68.62
43820;BME280;67762;52.476;6.046;2023-05-01T06:31:13;101510.47;;;10.33;68.29
43820;BME280;67762;52.476;6.046;2023-05-01T06:33:45;101514.94;;;10.42;68.15
43820;BME280;67762;52.476;6.046;2023-05-01T06:36:40;101515.34;;;10.47;68.01
43820;BME280;67762;52.476;6.046;2023-05-01T06:39:06;101518.84;;;10.48;67.78
43820;BME280;67762;52.476;6.046;2023-05-01T06:41:32;101521.53;;;10.48;68.20
43820;BME280;67762;52.476;6.046;2023-05-01T06:43:58;101515.91;;;10.51;68.02
43820;BME280;67762;52.476;6.046;2023-05-01T06:46:24;101516.16;;;10.57;67.61
43820;BME280;67762;52.476;6.046;2023-05-01T06:48:49;101513.59;;;10.66;68.01
43820;BME280;67762;52.476;6.046;2023-05-01T06:51:15;101516.09;;;10.67;67.92
43820;BME280;67762;52.476;6.046;2023-05-01T06:53:41;101515.81;;;10.70;66.82
43820;BME280;67762;52.476;6.046;2023-05-01T06:56:07;101511.88;;;10.74;66.99
43820;BME280;67762;52.476;6.046;2023-05-01T06:58:33;101504.94;;;10.81;66.94
43820;BME280;67762;52.476;6.046;2023-05-01T07:00:58;101511.28;;;10.98;66.30
43820;BME280;67762;52.476;6.046;2023-05-01T07:03:24;101511.63;;;11.12;66.56
43820;BME280;67762;52.476;6.046;2023-05-01T07:05:53;101514.91;;;11.24;66.21
43820;BME280;67762;52.476;6.046;2023-05-01T07:08:19;101511.63;;;11.30;65.56
43820;BME280;67762;52.476;6.046;2023-05-01T07:10:49;101511.78;;;11.46;65.42
43820;BME280;67762;52.476;6.046;2023-05-01T07:13:15;101510.16;;;11.53;65.51
43820;BME280;67762;52.476;6.046;2023-05-01T07:15:41;101510.53;;;11.58;65.47
43820;BME280;67762;52.476;6.046;2023-05-01T07:18:07;101507.66;;;11.69;64.90
43820;BME280;67762;52.476;6.046;2023-05-01T07:20:32;101503.22;;;11.78;64.38
43820;BME280;67762;52.476;6.046;2023-05-01T07:22:59;101502.91;;;11.81;64.06
43820;BME280;67762;52.476;6.046;2023-05-01T07:25:25;101499.94;;;11.84;63.32
43820;BME280;67762;52.476;6.046;2023-05-01T07:27:51;101505.81;;;11.88;63.94
43820;BME280;67762;52.476;6.046;2023-05-01T07:30:16;101496.53;;;12.00;64.02
43820;BME280;67762;52.476;6.046;2023-05-01T07:32:42;101496.31;;;12.19;63.27
43820;BME280;67762;52.476;6.046;2023-05-01T07:35:08;101494.25;;;12.39;62.95
43820;BME280;67762;52.476;6.046;2023-05-01T07:37:34;101498.03;;;12.62;62.80
43820;BME280;67762;52.476;6.046;2023-05-01T07:39:59;101499.22;;;12.67;62.01
43820;BME280;67762;52.476;6.046;2023-05-01T07:42:26;101505.47;;;12.76;61.30
43820;BME280;67762;52.476;6.046;2023-05-01T07:44:51;101497.25;;;12.77;60.75
43820;BME280;67762;52.476;6.046;2023-05-01T07:47:17;101493.09;;;12.83;60.78
43820;BME280;67762;52.476;6.046;2023-05-01T07:49:43;101497.84;;;13.05;60.30
43820;BME280;67762;52.476;6.046;2023-05-01T07:52:09;101489.56;;;13.24;60.46
43820;BME280;67762;52.476;6.046;2023-05-01T07:54:35;101497.44;;;13.42;59.96
43820;BME280;67762;52.476;6.046;2023-05-01T07:57:01;101493.91;;;13.49;59.09
43820;BME280;67762;52.476;6.046;2023-05-01T07:59:27;101491.75;;;13.93;57.30
43820;BME280;67762;52.476;6.046;2023-05-01T08:01:53;101486.31;;;14.18;57.29
43820;BME280;67762;52.476;6.046;2023-05-01T08:04:18;101496.66;;;14.45;57.19
43820;BME280;67762;52.476;6.046;2023-05-01T08:06:49;101493.38;;;14.74;56.51
43820;BME280;67762;52.476;6.046;2023-05-01T08:09:14;101495.00;;;14.83;56.44
43820;BME280;67762;52.476;6.046;2023-05-01T08:11:40;101489.44;;;15.15;56.15
43820;BME280;67762;52.476;6.046;2023-05-01T08:14:06;101494.78;;;15.46;55.01
43820;BME280;67762;52.476;6.046;2023-05-01T08:16:33;101485.97;;;15.74;55.31
43820;BME280;67762;52.476;6.046;2023-05-01T08:18:58;101491.78;;;15.63;54.55
43820;BME280;67762;52.476;6.046;2023-05-01T08:21:24;101492.06;;;15.91;54.88
43820;BME280;67762;52.476;6.046;2023-05-01T08:23:50;101494.72;;;16.28;54.22
43820;BME280;67762;52.476;6.046;2023-05-01T08:26:16;101502.53;;;16.82;53.40
43820;BME280;67762;52.476;6.046;2023-05-01T08:28:43;101485.13;;;17.20;52.64
43820;BME280;67762;52.476;6.046;2023-05-01T08:31:08;101486.84;;;17.28;52.57
43820;BME280;67762;52.476;6.046;2023-05-01T08:33:34;101491.31;;;17.78;52.12
43820;BME280;67762;52.476;6.046;2023-05-01T08:36:00;101491.78;;;18.43;50.84
43820;BME280;67762;52.476;6.046;2023-05-01T08:38:26;101480.13;;;18.43;50.18
43820;BME280;67762;52.476;6.046;2023-05-01T08:40:52;101481.75;;;18.37;50.42
43820;BME280;67762;52.476;6.046;2023-05-01T08:43:21;101477.53;;;18.28;49.73
43820;BME280;67762;52.476;6.046;2023-05-01T08:45:48;101480.56;;;18.46;50.25
43820;BME280;67762;52.476;6.046;2023-05-01T08:48:15;101479.03;;;18.65;49.42
43820;BME280;67762;52.476;6.046;2023-05-01T08:50:45;101480.63;;;18.53;48.31
43820;BME280;67762;52.476;6.046;2023-05-01T08:53:12;101479.72;;;18.46;48.41
43820;BME280;67762;52.476;6.046;2023-05-01T08:55:45;101475.63;;;18.50;48.29
43820;BME280;67762;52.476;6.046;2023-05-01T08:58:12;101478.13;;;18.51;47.78
43820;BME280;67762;52.476;6.046;2023-05-01T09:00:39;101483.63;;;18.71;48.01
43820;BME280;67762;52.476;6.046;2023-05-01T09:03:05;101486.34;;;18.78;46.94
43820;BME280;67762;52.476;6.046;2023-05-01T09:05:32;101475.97;;;18.81;47.04
43820;BME280;67762;52.476;6.046;2023-05-01T09:07:58;101486.09;;;18.66;47.72
43820;BME280;67762;52.476;6.046;2023-05-01T09:10:24;101478.13;;;18.51;48.33
43820;BME280;67762;52.476;6.046;2023-05-01T09:12:59;101480.09;;;18.36;48.32
43820;BME280;67762;52.476;6.046;2023-05-01T09:15:26;101474.06;;;18.34;48.74
43820;BME280;67762;52.476;6.046;2023-05-01T09:17:58;101474.91;;;18.41;48.36
43820;BME280;67762;52.476;6.046;2023-05-01T09:20:24;101482.78;;;18.36;48.22
43820;BME280;67762;52.476;6.046;2023-05-01T09:22:50;101481.94;;;18.29;48.05
43820;BME280;67762;52.476;6.046;2023-05-01T09:25:16;101479.19;;;18.23;46.72
43820;BME280;67762;52.476;6.046;2023-05-01T09:27:43;101480.19;;;18.22;46.70
43820;BME280;67762;52.476;6.046;2023-05-01T09:30:09;101485.19;;;18.52;46.57
43820;BME280;67762;52.476;6.046;2023-05-01T09:32:35;101486.78;;;18.81;46.18
43820;BME280;67762;52.476;6.046;2023-05-01T09:35:12;101477.47;;;18.97;45.54
43820;BME280;67762;52.476;6.046;2023-05-01T09:37:39;101486.28;;;19.12;45.34
43820;BME280;67762;52.476;6.046;2023-05-01T09:40:08;101475.41;;;19.05;44.54
43820;BME280;67762;52.476;6.046;2023-05-01T09:42:38;101481.00;;;18.91;44.33
43820;BME280;67762;52.476;6.046;2023-05-01T09:45:12;101481.63;;;18.93;44.45
43820;BME280;67762;52.476;6.046;2023-05-01T09:47:42;101480.94;;;18.78;44.45
43820;BME280;67762;52.476;6.046;2023-05-01T09:50:10;101475.94;;;18.68;44.40
43820;BME280;67762;52.476;6.046;2023-05-01T09:52:35;101472.38;;;18.67;45.06
43820;BME280;67762;52.476;6.046;2023-05-01T09:57:38;101467.81;;;18.68;45.00
43820;BME280;67762;52.476;6.046;2023-05-01T10:00:05;101465.19;;;18.88;44.79
43820;BME280;67762;52.476;6.046;2023-05-01T10:02:32;101464.31;;;18.81;43.81
43820;BME280;67762;52.476;6.046;2023-05-01T10:04:59;101475.13;;;18.74;44.04
43820;BME280;67762;52.476;6.046;2023-05-01T10:07:25;101470.34;;;18.76;44.51
43820;BME280;67762;52.476;6.046;2023-05-01T10:09:52;101474.34;;;18.87;44.44
43820;BME280;67762;52.476;6.046;2023-05-01T10:12:27;101474.19;;;19.01;43.94
43820;BME280;67762;52.476;6.046;2023-05-01T10:14:55;101469.00;;;19.19;43.97
43820;BME280;67762;52.476;6.046;2023-05-01T10:17:22;101473.59;;;19.25;43.56
43820;BME280;67762;52.476;6.046;2023-05-01T10:19:48;101463.81;;;19.18;43.07
43820;BME280;67762;52.476;6.046;2023-05-01T10:22:14;101471.09;;;19.17;43.41
43820;BME280;67762;52.476;6.046;2023-05-01T10:24:42;101473.38;;;19.27;43.50
43820;BME280;67762;52.476;6.046;2023-05-01T10:27:09;101475.53;;;19.38;43.72
43820;BME280;67762;52.476;6.046;2023-05-01T10:29:36;101478.25;;;19.45;42.99
43820;BME280;67762;52.476;6.046;2023-05-01T10:32:06;101471.78;;;19.52;43.23
43820;BME280;67762;52.476;6.046;2023-05-01T10:34:41;101465.97;;;19.75;43.12
43820;BME280;67762;52.476;6.046;2023-05-01T10:37:16;101471.59;;;19.87;42.16
43820;BME280;67762;52.476;6.046;2023-05-01T10:39:43;101472.41;;;20.07;42.50
43820;BME280;67762;52.476;6.046;2023-05-01T10:42:10;101470.94;;;20.24;41.37
43820;BME280;67762;52.476;6.046;2023-05-01T10:44:39;101466.28;;;20.51;40.99
43820;BME280;67762;52.476;6.046;2023-05-01T10:50:02;101473.00;;;20.41;40.19
43820;BME280;67762;52.476;6.046;2023-05-01T10:52:29;101477.91;;;20.64;40.88
43820;BME280;67762;52.476;6.046;2023-05-01T10:55:30;101480.22;;;21.12;39.97
43820;BME280;67762;52.476;6.046;2023-05-01T10:57:56;101470.84;;;21.45;39.53
43820;BME280;67762;52.476;6.046;2023-05-01T11:00:22;101473.75;;;21.44;38.94
43820;BME280;67762;52.476;6.046;2023-05-01T11:02:47;101473.69;;;21.26;38.98
43820;BME280;67762;52.476;6.046;2023-05-01T11:05:13;101465.41;;;21.45;39.64
43820;BME280;67762;52.476;6.046;2023-05-01T11:07:38;101464.00;;;21.36;39.76
43820;BME280;67762;52.476;6.046;2023-05-01T11:10:24;101465.16;;;21.47;39.54
43820;BME280;67762;52.476;6.046;2023-05-01T11:12:51;101463.81;;;21.38;39.21
43820;BME280;67762;52.476;6.046;2023-05-01T11:15:28;101453.88;;;21.19;39.49
43820;BME280;67762;52.476;6.046;2023-05-01T11:17:55;101454.00;;;21.30;39.19
43820;BME280;67762;52.476;6.046;2023-05-01T11:22:59;101454.81;;;21.93;38.88
43820;BME280;67762;52.476;6.046;2023-05-01T11:25:29;101454.06;;;22.41;39.14
43820;BME280;67762;52.476;6.046;2023-05-01T11:27:58;101455.50;;;22.61;38.46
43820;BME280;67762;52.476;6.046;2023-05-01T11:30:24;101451.28;;;22.47;38.65
43820;BME280;67762;52.476;6.046;2023-05-01T11:32:50;101458.38;;;22.30;37.76
43820;BME280;67762;52.476;6.046;2023-05-01T11:35:18;101451.34;;;22.23;38.18
43820;BME280;67762;52.476;6.046;2023-05-01T11:37:45;101448.38;;;21.81;38.48
43820;BME280;67762;52.476;6.046;2023-05-01T11:40:25;101444.88;;;21.74;38.67
43820;BME280;67762;52.476;6.046;2023-05-01T11:43:04;101447.31;;;21.89;38.98
43820;BME280;67762;52.476;6.046;2023-05-01T11:45:32;101453.13;;;21.68;38.89
43820;BME280;67762;52.476;6.046;2023-05-01T11:47:58;101450.50;;;21.54;39.37
43820;BME280;67762;52.476;6.046;2023-05-01T11:50:35;101447.50;;;21.38;39.62
43820;BME280;67762;52.476;6.046;2023-05-01T11:53:02;101445.03;;;21.30;39.87
43820;BME280;67762;52.476;6.046;2023-05-01T11:55:32;101441.50;;;21.29;40.27
43820;BME280;67762;52.476;6.046;2023-05-01T11:57:58;101435.38;;;21.40;40.01
43820;BME280;67762;52.476;6.046;2023-05-01T12:02:58;101442.69;;;21.65;40.33
43820;BME280;67762;52.476;6.046;2023-05-01T12:05:26;101441.28;;;22.05;39.12
43820;BME280;67762;52.476;6.046;2023-05-01T12:08:19;101433.16;;;22.23;39.51
43820;BME280;67762;52.476;6.046;2023-05-01T12:10:50;101436.53;;;22.19;38.83
43820;BME280;67762;52.476;6.046;2023-05-01T12:13:20;101438.00;;;22.21;38.79
43820;BME280;67762;52.476;6.046;2023-05-01T12:15:49;101431.25;;;22.42;38.87
43820;BME280;67762;52.476;6.046;2023-05-01T12:18:16;101440.63;;;22.82;39.06
43820;BME280;67762;52.476;6.046;2023-05-01T12:20:53;101444.28;;;23.06;38.32
43820;BME280;67762;52.476;6.046;2023-05-01T12:23:35;101433.22;;;23.30;38.08
43820;BME280;67762;52.476;6.046;2023-05-01T12:26:17;101438.03;;;23.17;37.01
43820;BME280;67762;52.476;6.046;2023-05-01T12:28:58;101433.53;;;23.41;36.59
43820;BME280;67762;52.476;6.046;2023-05-01T12:31:25;101434.50;;;23.93;36.90
43820;BME280;67762;52.476;6.046;2023-05-01T12:34:00;101431.19;;;24.14;35.89
43820;BME280;67762;52.476;6.046;2023-05-01T12:36:27;101431.94;;;24.09;35.58
43820;BME280;67762;52.476;6.046;2023-05-01T12:39:13;101427.88;;;24.12;35.58
43820;BME280;67762;52.476;6.046;2023-05-01T12:41:47;101435.44;;;23.75;34.87
43820;BME280;67762;52.476;6.046;2023-05-01T12:46:44;101430.47;;;23.72;35.40
43820;BME280;67762;52.476;6.046;2023-05-01T12:49:19;101433.91;;;23.79;35.08
43820;BME280;67762;52.476;6.046;2023-05-01T12:51:49;101424.56;;;23.86;35.50
43820;BME280;67762;52.476;6.046;2023-05-01T12:54:32;101428.00;;;23.70;35.26
43820;BME280;67762;52.476;6.046;2023-05-01T12:57:09;101426.47;;;23.33;35.71
43820;BME280;67762;52.476;6.046;2023-05-01T12:59:37;101422.38;;;23.42;35.92
43820;BME280;67762;52.476;6.046;2023-05-01T13:04:33;101422.53;;;23.59;36.07
43820;BME280;67762;52.476;6.046;2023-05-01T13:06:59;101422.38;;;23.42;35.76
43820;BME280;67762;52.476;6.046;2023-05-01T13:09:28;101420.72;;;23.41;35.76
43820;BME280;67762;52.476;6.046;2023-05-01T13:12:03;101421.31;;;23.43;35.87
43820;BME280;67762;52.476;6.046;2023-05-01T13:14:38;101423.47;;;23.53;35.14
43820;BME280;67762;52.476;6.046;2023-05-01T13:17:08;101423.34;;;23.48;34.84
43820;BME280;67762;52.476;6.046;2023-05-01T13:19:35;101415.19;;;22.88;36.68
43820;BME280;67762;52.476;6.046;2023-05-01T13:22:01;101423.28;;;22.29;38.34
43820;BME280;67762;52.476;6.046;2023-05-01T13:24:40;101426.78;;;21.68;39.39
43820;BME280;67762;52.476;6.046;2023-05-01T13:27:07;101424.25;;;21.17;41.21
43820;BME280;67762;52.476;6.046;2023-05-01T13:29:33;101448.16;;;20.95;41.43